createdAt,value
2023-03-29T00:00:38.330Z,505.00
2023-03-29T00:01:38.354Z,503.00
2023-03-29T00:02:38.493Z,509.00
2023-03-29T00:03:38.481Z,505.00
2023-03-29T00:04:38.420Z,503.00
2023-03-29T00:05:39.030Z,504.00
2023-03-29T00:06:38.457Z,505.00
2023-03-29T00:07:38.466Z,502.00
2023-03-29T00:08:38.489Z,501.00
2023-03-29T00:09:38.569Z,508.00
2023-03-29T00:10:38.524Z,502.00
2023-03-29T00:11:38.562Z,502.00
2023-03-29T00:12:38.576Z,506.00
2023-03-29T00:13:38.590Z,509.00
2023-03-29T00:14:38.639Z,501.00
2023-03-29T00:15:38.655Z,503.00
2023-03-29T00:16:38.727Z,505.00
2023-03-29T00:17:38.725Z,504.00
2023-03-29T00:18:38.742Z,507.00
2023-03-29T00:19:38.773Z,505.00
2023-03-29T00:20:38.787Z,505.00
2023-03-29T00:21:38.811Z,507.00
2023-03-29T00:22:38.821Z,502.00
2023-03-29T00:23:38.851Z,501.00
2023-03-29T00:24:38.937Z,505.00
2023-03-29T00:25:38.897Z,500.00
2023-03-29T00:26:38.939Z,510.00
2023-03-29T00:27:38.962Z,503.00
2023-03-29T00:28:38.991Z,507.00
2023-03-29T00:29:39.009Z,506.00
2023-03-29T00:30:39.056Z,503.00
2023-03-29T00:31:39.136Z,506.00
2023-03-29T00:32:39.144Z,504.00
2023-03-29T00:33:39.201Z,506.00
2023-03-29T00:34:39.278Z,504.00
2023-03-29T00:35:39.211Z,500.00
2023-03-29T00:36:39.220Z,512.00
2023-03-29T00:37:39.263Z,508.00
2023-03-29T00:38:39.271Z,503.00
2023-03-29T00:39:39.305Z,507.00
2023-03-29T00:40:39.345Z,506.00
2023-03-29T00:41:39.375Z,507.00
2023-03-29T00:42:39.422Z,510.00
2023-03-29T00:43:39.423Z,506.00
2023-03-29T00:44:39.462Z,507.00
2023-03-29T00:45:39.490Z,505.00
2023-03-29T00:46:39.535Z,512.00
2023-03-29T00:47:39.672Z,504.00
2023-03-29T00:48:39.646Z,505.00
2023-03-29T00:49:39.615Z,505.00
2023-03-29T00:50:40.077Z,506.00
2023-03-29T00:51:39.649Z,500.00
2023-03-29T00:52:39.688Z,502.00
2023-03-29T00:53:39.718Z,505.00
2023-03-29T00:54:39.753Z,507.00
2023-03-29T00:55:39.779Z,502.00
2023-03-29T00:56:40.023Z,501.00
2023-03-29T00:57:39.852Z,508.00
2023-03-29T00:58:39.870Z,504.00
2023-03-29T00:59:39.898Z,502.00
2023-03-29T01:00:39.931Z,502.00
2023-03-29T01:01:40.029Z,505.00
2023-03-29T01:02:40.130Z,507.00
2023-03-29T01:03:40.103Z,505.00
2023-03-29T01:04:40.064Z,507.00
2023-03-29T01:05:40.084Z,506.00
2023-03-29T01:06:40.142Z,509.00
2023-03-29T01:07:40.149Z,507.00
2023-03-29T01:08:40.228Z,503.00
2023-03-29T01:09:40.220Z,507.00
2023-03-29T01:10:40.245Z,500.00
2023-03-29T01:11:40.291Z,509.00
2023-03-29T01:12:40.308Z,503.00
2023-03-29T01:13:40.332Z,506.00
2023-03-29T01:14:40.376Z,503.00
2023-03-29T01:15:40.419Z,503.00
2023-03-29T01:16:40.487Z,503.00
2023-03-29T01:17:40.556Z,505.00
2023-03-29T01:18:40.519Z,504.00
2023-03-29T01:19:40.563Z,508.00
2023-03-29T01:20:40.584Z,511.00
2023-03-29T01:21:40.627Z,505.00
2023-03-29T01:22:40.654Z,506.00
2023-03-29T01:23:40.699Z,506.00
2023-03-29T01:24:40.724Z,510.00
2023-03-29T01:25:40.762Z,511.00
2023-03-29T01:26:40.804Z,509.00
2023-03-29T01:27:40.843Z,508.00
2023-03-29T01:28:40.879Z,508.00
2023-03-29T01:29:40.913Z,505.00
2023-03-29T01:30:41.571Z,504.00
2023-03-29T01:31:41.079Z,507.00
2023-03-29T01:32:41.114Z,508.00
2023-03-29T01:33:41.063Z,507.00
2023-03-29T01:34:41.177Z,514.00
2023-03-29T01:35:41.167Z,513.00
2023-03-29T01:36:41.173Z,507.00
2023-03-29T01:37:41.233Z,509.00
2023-03-29T01:38:41.265Z,510.00
2023-03-29T01:39:41.375Z,504.00
2023-03-29T01:40:41.424Z,509.00
2023-03-29T01:41:41.361Z,509.00
2023-03-29T01:42:41.396Z,507.00
2023-03-29T01:43:41.447Z,502.00
2023-03-29T01:44:41.502Z,505.00
2023-03-29T01:45:41.561Z,504.00
2023-03-29T01:46:41.559Z,504.00
2023-03-29T01:47:41.618Z,505.00
2023-03-29T01:48:41.655Z,508.00
2023-03-29T01:49:41.676Z,502.00
2023-03-29T01:50:41.725Z,507.00
2023-03-29T01:51:41.768Z,503.00
2023-03-29T01:52:41.822Z,510.00
2023-03-29T01:53:41.863Z,508.00
2023-03-29T01:54:41.906Z,508.00
2023-03-29T01:55:41.964Z,503.00
2023-03-29T01:56:42.021Z,501.00
2023-03-29T01:57:42.044Z,506.00
2023-03-29T01:58:42.080Z,507.00
2023-03-29T01:59:42.124Z,507.00
2023-03-29T02:00:42.181Z,505.00
2023-03-29T02:01:42.286Z,505.00
2023-03-29T02:02:42.723Z,508.00
2023-03-29T02:03:42.504Z,506.00
2023-03-29T02:04:42.335Z,503.00
2023-03-29T02:05:42.416Z,509.00
2023-03-29T02:06:42.440Z,510.00
2023-03-29T02:07:42.536Z,508.00
2023-03-29T02:08:42.509Z,505.00
2023-03-29T02:09:42.559Z,504.00
2023-03-29T02:10:42.697Z,505.00
2023-03-29T02:11:42.683Z,505.00
2023-03-29T02:12:42.694Z,506.00
2023-03-29T02:13:42.764Z,508.00
2023-03-29T02:14:42.768Z,503.00
2023-03-29T02:15:42.884Z,507.00
2023-03-29T02:16:42.872Z,505.00
2023-03-29T02:17:42.921Z,504.00
2023-03-29T02:18:42.952Z,502.00
2023-03-29T02:19:42.994Z,508.00
2023-03-29T02:20:43.040Z,506.00
2023-03-29T02:21:43.075Z,500.00
2023-03-29T02:22:43.115Z,506.00
2023-03-29T02:23:43.177Z,500.00
2023-03-29T02:24:43.209Z,512.00
2023-03-29T02:25:43.347Z,505.00
2023-03-29T02:26:43.312Z,509.00
2023-03-29T02:27:43.352Z,500.00
2023-03-29T02:28:43.381Z,508.00
2023-03-29T02:29:43.428Z,504.00
2023-03-29T02:30:43.488Z,500.00
2023-03-29T02:31:43.611Z,503.00
2023-03-29T02:32:43.610Z,504.00
2023-03-29T02:33:43.611Z,512.00
2023-03-29T02:34:43.668Z,508.00
2023-03-29T02:35:43.708Z,502.00
2023-03-29T02:36:44.135Z,507.00
2023-03-29T02:37:43.772Z,507.00
2023-03-29T02:38:43.814Z,510.00
2023-03-29T02:39:43.926Z,509.00
2023-03-29T02:40:43.919Z,510.00
2023-03-29T02:41:43.951Z,509.00
2023-03-29T02:42:44.012Z,502.00
2023-03-29T02:43:44.047Z,501.00
2023-03-29T02:44:44.128Z,505.00
2023-03-29T02:45:44.154Z,501.00
2023-03-29T02:46:44.274Z,501.00
2023-03-29T02:47:44.339Z,508.00
2023-03-29T02:48:44.607Z,507.00
2023-03-29T02:49:44.384Z,511.00
2023-03-29T02:50:44.433Z,508.00
2023-03-29T02:51:44.499Z,507.00
2023-03-29T02:52:44.528Z,510.00
2023-03-29T02:53:44.685Z,501.00
2023-03-29T02:54:44.643Z,510.00
2023-03-29T02:55:44.702Z,510.00
2023-03-29T02:56:44.846Z,505.00
2023-03-29T02:57:44.817Z,512.00
2023-03-29T02:58:44.859Z,511.00
2023-03-29T02:59:44.921Z,507.00
2023-03-29T03:00:44.972Z,509.00
2023-03-29T03:01:45.137Z,506.00
2023-03-29T03:02:45.125Z,508.00
2023-03-29T03:03:46.197Z,505.00
2023-03-29T03:04:45.188Z,509.00
2023-03-29T03:05:46.127Z,509.00
2023-03-29T03:06:45.296Z,512.00
2023-03-29T03:07:46.165Z,510.00
2023-03-29T03:08:45.462Z,509.00
2023-03-29T03:09:45.457Z,509.00
2023-03-29T03:10:45.498Z,510.00
2023-03-29T03:11:45.579Z,509.00
2023-03-29T03:12:45.616Z,506.00
2023-03-29T03:13:45.675Z,507.00
2023-03-29T03:14:46.612Z,503.00
2023-03-29T03:15:45.762Z,505.00
2023-03-29T03:16:45.906Z,508.00
2023-03-29T03:17:45.872Z,509.00
2023-03-29T03:18:45.972Z,509.00
2023-03-29T03:19:45.967Z,508.00
2023-03-29T03:20:46.028Z,512.00
2023-03-29T03:21:46.068Z,509.00
2023-03-29T03:22:46.125Z,505.00
2023-03-29T03:23:46.179Z,503.00
2023-03-29T03:24:46.228Z,509.00
2023-03-29T03:25:46.289Z,507.00
2023-03-29T03:26:46.394Z,507.00
2023-03-29T03:27:46.416Z,509.00
2023-03-29T03:28:46.469Z,512.00
2023-03-29T03:29:46.509Z,504.00
2023-03-29T03:30:46.565Z,507.00
2023-03-29T03:31:47.642Z,506.00
2023-03-29T03:32:46.701Z,500.00
2023-03-29T03:33:46.743Z,507.00
2023-03-29T03:34:46.785Z,508.00
2023-03-29T03:35:46.872Z,506.00
2023-03-29T03:36:47.124Z,505.00
2023-03-29T03:37:46.973Z,512.00
2023-03-29T03:38:47.034Z,502.00
2023-03-29T03:39:47.081Z,500.00
2023-03-29T03:40:47.142Z,506.00
2023-03-29T03:41:47.288Z,504.00
2023-03-29T03:42:47.247Z,513.00
2023-03-29T03:43:47.334Z,505.00
2023-03-29T03:44:47.372Z,509.00
2023-03-29T03:45:47.504Z,510.00
2023-03-29T03:46:47.489Z,508.00
2023-03-29T03:47:47.605Z,507.00
2023-03-29T03:48:47.617Z,508.00
2023-03-29T03:49:47.683Z,503.00
2023-03-29T03:50:47.738Z,507.00
2023-03-29T03:51:47.800Z,509.00
2023-03-29T03:52:47.867Z,508.00
2023-03-29T03:53:47.929Z,517.00
2023-03-29T03:54:47.979Z,507.00
2023-03-29T03:55:48.043Z,506.00
2023-03-29T03:56:48.121Z,510.00
2023-03-29T03:57:48.169Z,510.00
2023-03-29T03:58:48.230Z,507.00
2023-03-29T03:59:48.298Z,510.00
2023-03-29T04:00:48.351Z,504.00
2023-03-29T04:01:48.431Z,506.00
2023-03-29T04:02:48.680Z,511.00
2023-03-29T04:03:48.623Z,504.00
2023-03-29T04:04:48.729Z,504.00
2023-03-29T04:05:48.678Z,504.00
2023-03-29T04:06:48.724Z,502.00
2023-03-29T04:07:48.878Z,509.00
2023-03-29T04:08:48.917Z,504.00
2023-03-29T04:09:48.918Z,500.00
2023-03-29T04:10:48.981Z,508.00
2023-03-29T04:11:49.040Z,505.00
2023-03-29T04:12:49.143Z,504.00
2023-03-29T04:13:49.166Z,505.00
2023-03-29T04:14:49.235Z,501.00
2023-03-29T04:15:49.319Z,508.00
2023-03-29T04:16:49.353Z,507.00
2023-03-29T04:17:49.502Z,504.00
2023-03-29T04:18:49.498Z,505.00
2023-03-29T04:19:49.534Z,505.00
2023-03-29T04:20:49.594Z,505.00
2023-03-29T04:21:49.659Z,508.00
2023-03-29T04:22:49.718Z,504.00
2023-03-29T04:23:49.831Z,511.00
2023-03-29T04:24:49.844Z,507.00
2023-03-29T04:25:49.913Z,502.00
2023-03-29T04:26:49.986Z,500.00
2023-03-29T04:27:50.053Z,514.00
2023-03-29T04:28:50.106Z,506.00
2023-03-29T04:29:50.158Z,503.00
2023-03-29T04:30:50.243Z,501.00
2023-03-29T04:31:50.311Z,500.00
2023-03-29T04:32:50.482Z,500.00
2023-03-29T04:33:50.363Z,505.00
2023-03-29T04:34:50.435Z,510.00
2023-03-29T04:35:50.633Z,509.00
2023-03-29T04:36:50.573Z,502.00
2023-03-29T04:37:50.611Z,505.00
2023-03-29T04:38:51.634Z,505.00
2023-03-29T04:39:50.737Z,510.00
2023-03-29T04:40:50.806Z,506.00
2023-03-29T04:41:50.870Z,510.00
2023-03-29T04:42:50.936Z,499.00
2023-03-29T04:43:51.016Z,504.00
2023-03-29T04:44:51.093Z,512.00
2023-03-29T04:45:51.140Z,505.00
2023-03-29T04:46:51.256Z,506.00
2023-03-29T04:47:51.338Z,507.00
2023-03-29T04:48:51.339Z,510.00
2023-03-29T04:49:51.408Z,502.00
2023-03-29T04:50:51.480Z,505.00
2023-03-29T04:51:51.549Z,504.00
2023-03-29T04:52:51.621Z,511.00
2023-03-29T04:53:52.156Z,505.00
2023-03-29T04:54:51.771Z,506.00
2023-03-29T04:55:51.834Z,510.00
2023-03-29T04:56:51.935Z,514.00
2023-03-29T04:57:52.048Z,507.00
2023-03-29T04:58:52.126Z,506.00
2023-03-29T04:59:52.184Z,505.00
2023-03-29T05:00:52.220Z,508.00
2023-03-29T05:01:52.341Z,506.00
2023-03-29T05:02:52.404Z,505.00
2023-03-29T05:03:52.492Z,506.00
2023-03-29T05:04:52.547Z,506.00
2023-03-29T05:05:52.579Z,509.00
2023-03-29T05:06:52.660Z,510.00
2023-03-29T05:07:52.728Z,506.00
2023-03-29T05:08:52.804Z,506.00
2023-03-29T05:09:52.843Z,506.00
2023-03-29T05:10:52.908Z,510.00
2023-03-29T05:11:52.987Z,500.00
2023-03-29T05:12:53.043Z,512.00
2023-03-29T05:13:53.180Z,506.00
2023-03-29T05:14:53.190Z,501.00
2023-03-29T05:15:53.329Z,505.00
2023-03-29T05:16:53.328Z,505.00
2023-03-29T05:17:53.451Z,505.00
2023-03-29T05:18:53.483Z,506.00
2023-03-29T05:19:53.554Z,507.00
2023-03-29T05:20:53.609Z,505.00
2023-03-29T05:21:53.667Z,505.00
2023-03-29T05:22:53.736Z,505.00
2023-03-29T05:23:53.779Z,509.00
2023-03-29T05:24:54.185Z,503.00
2023-03-29T05:25:53.912Z,517.00
2023-03-29T05:26:54.659Z,520.00
2023-03-29T05:27:54.021Z,529.00
2023-03-29T05:28:54.061Z,546.00
2023-03-29T05:29:54.109Z,562.00
2023-03-29T05:30:54.177Z,577.00
2023-03-29T05:31:54.285Z,588.00
2023-03-29T05:32:54.323Z,602.00
2023-03-29T05:33:54.336Z,604.00
2023-03-29T05:34:54.367Z,616.00
2023-03-29T05:35:54.488Z,628.00
2023-03-29T05:36:54.411Z,639.00
2023-03-29T05:37:54.452Z,642.00
2023-03-29T05:38:54.481Z,657.00
2023-03-29T05:39:54.470Z,666.00
2023-03-29T05:40:55.456Z,668.00
2023-03-29T05:41:55.514Z,670.00
2023-03-29T05:42:54.501Z,689.00
2023-03-29T05:43:54.461Z,731.00
2023-03-29T05:44:54.653Z,807.00
2023-03-29T05:45:54.482Z,895.00
2023-03-29T05:46:54.566Z,962.00
2023-03-29T05:47:54.535Z,987.00
2023-03-29T05:48:54.443Z,1003.00
2023-03-29T05:49:54.445Z,1019.00
2023-03-29T05:50:54.443Z,1062.00
2023-03-29T05:51:54.430Z,1090.00
2023-03-29T05:52:54.419Z,1109.00
2023-03-29T05:53:54.418Z,1129.00
2023-03-29T05:54:54.414Z,1153.00
2023-03-29T05:55:54.408Z,1171.00
2023-03-29T05:56:54.437Z,1202.00
2023-03-29T05:57:54.403Z,1222.00
2023-03-29T05:58:55.075Z,1255.00
2023-03-29T05:59:54.386Z,1270.00
2023-03-29T06:00:54.372Z,1299.00
2023-03-29T06:01:54.407Z,1326.00
2023-03-29T06:02:54.485Z,1342.00
2023-03-29T06:03:55.374Z,1419.00
2023-03-29T06:04:54.485Z,1423.00
2023-03-29T06:05:54.515Z,1426.00
2023-03-29T06:06:54.474Z,1459.00
2023-03-29T06:07:54.525Z,1475.00
2023-03-29T06:08:54.583Z,1473.00
2023-03-29T06:09:54.686Z,1504.00
2023-03-29T06:10:54.702Z,1510.00
2023-03-29T06:11:54.677Z,1532.00
2023-03-29T06:12:54.721Z,1563.00
2023-03-29T06:13:54.746Z,1562.00
2023-03-29T06:14:54.771Z,1584.00
2023-03-29T06:15:54.795Z,1601.00
2023-03-29T06:16:54.882Z,1613.00
2023-03-29T06:17:54.874Z,1650.00
2023-03-29T06:18:54.867Z,1666.00
2023-03-29T06:19:54.890Z,1676.00
2023-03-29T06:20:54.927Z,1687.00
2023-03-29T06:21:55.188Z,1717.00
2023-03-29T06:22:55.010Z,1753.00
2023-03-29T06:23:55.013Z,660.00
2023-03-29T06:24:55.053Z,492.00
2023-03-29T06:25:55.178Z,567.00
2023-03-29T06:26:55.254Z,637.00
2023-03-29T06:27:55.346Z,649.00
2023-03-29T06:28:55.413Z,662.00
2023-03-29T06:29:55.488Z,689.00
2023-03-29T06:30:55.559Z,725.00
2023-03-29T06:31:55.550Z,750.00
2023-03-29T06:32:55.682Z,787.00
2023-03-29T06:33:55.701Z,821.00
2023-03-29T06:34:55.758Z,811.00
2023-03-29T06:35:57.724Z,857.00
2023-03-29T06:36:55.893Z,878.00
2023-03-29T06:37:55.936Z,909.00
2023-03-29T06:38:55.964Z,938.00
2023-03-29T06:39:55.984Z,972.00
2023-03-29T06:40:55.997Z,989.00
2023-03-29T06:41:55.998Z,1013.00
2023-03-29T06:42:56.033Z,1038.00
2023-03-29T06:43:56.102Z,1074.00
2023-03-29T06:44:56.267Z,1111.00
2023-03-29T06:45:56.375Z,1121.00
2023-03-29T06:46:56.283Z,1149.00
2023-03-29T06:47:56.395Z,1175.00
2023-03-29T06:48:56.372Z,1214.00
2023-03-29T06:49:56.421Z,1244.00
2023-03-29T06:50:56.463Z,1253.00
2023-03-29T06:51:56.560Z,1294.00
2023-03-29T06:52:56.541Z,1308.00
2023-03-29T06:53:56.570Z,1337.00
2023-03-29T06:54:56.732Z,1354.00
2023-03-29T06:55:56.640Z,1374.00
2023-03-29T06:56:56.679Z,1408.00
2023-03-29T06:57:56.682Z,1428.00
2023-03-29T06:58:56.864Z,1438.00
2023-03-29T06:59:56.723Z,1480.00
2023-03-29T07:00:56.726Z,1483.00
2023-03-29T07:01:56.924Z,1503.00
2023-03-29T07:02:57.234Z,1556.00
2023-03-29T07:03:56.794Z,1574.00
2023-03-29T07:04:56.802Z,1575.00
2023-03-29T07:05:56.817Z,1604.00
2023-03-29T07:06:56.802Z,1665.00
2023-03-29T07:07:56.991Z,1713.00
2023-03-29T07:08:56.821Z,1719.00
2023-03-29T07:09:56.859Z,1737.00
2023-03-29T07:10:56.834Z,1750.00
2023-03-29T07:11:56.904Z,1757.00
2023-03-29T07:12:56.871Z,1777.00
2023-03-29T07:13:56.863Z,1792.00
2023-03-29T07:14:56.879Z,1811.00
2023-03-29T07:15:56.923Z,1831.00
2023-03-29T07:16:57.173Z,1805.00
2023-03-29T07:17:56.975Z,1816.00
2023-03-29T07:18:57.707Z,1824.00
2023-03-29T07:19:56.956Z,1809.00
2023-03-29T07:20:56.966Z,1818.00
2023-03-29T07:21:57.026Z,1811.00
2023-03-29T07:22:57.001Z,1815.00
2023-03-29T07:23:57.027Z,1819.00
2023-03-29T07:24:57.065Z,1820.00
2023-03-29T07:25:57.101Z,1826.00
2023-03-29T07:27:04.243Z,1816.00
2023-03-29T07:27:58.140Z,1817.00
2023-03-29T07:28:57.110Z,1818.00
2023-03-29T07:29:57.084Z,1818.00
2023-03-29T07:30:57.079Z,1815.00
2023-03-29T07:31:57.066Z,1823.00
2023-03-29T07:32:57.120Z,1816.00
2023-03-29T07:33:57.100Z,1802.00
2023-03-29T07:34:57.043Z,1800.00
2023-03-29T07:35:58.081Z,1801.00
2023-03-29T07:36:57.033Z,1801.00
2023-03-29T07:37:57.041Z,1801.00
2023-03-29T07:38:57.040Z,1801.00
2023-03-29T07:39:57.022Z,1804.00
2023-03-29T07:40:57.019Z,1790.00
2023-03-29T07:41:57.025Z,1779.00
2023-03-29T07:42:57.026Z,1795.00
2023-03-29T07:43:57.007Z,1771.00
2023-03-29T07:44:57.062Z,1780.00
2023-03-29T07:45:57.085Z,1757.00
2023-03-29T07:46:57.109Z,1755.00
2023-03-29T07:47:57.287Z,1756.00
2023-03-29T07:48:57.193Z,1753.00
2023-03-29T07:49:57.233Z,1742.00
2023-03-29T07:50:57.317Z,1731.00
2023-03-29T07:51:57.302Z,1724.00
2023-03-29T07:52:57.359Z,1721.00
2023-03-29T07:53:57.385Z,1730.00
2023-03-29T07:54:57.409Z,1723.00
2023-03-29T07:55:57.429Z,1709.00
2023-03-29T07:56:57.478Z,1703.00
2023-03-29T07:57:57.439Z,1709.00
2023-03-29T07:58:57.436Z,1686.00
2023-03-29T07:59:57.443Z,1678.00
2023-03-29T08:00:57.575Z,1678.00
2023-03-29T08:01:57.490Z,1666.00
2023-03-29T08:02:58.275Z,1656.00
2023-03-29T08:03:57.630Z,1646.00
2023-03-29T08:04:57.493Z,1631.00
2023-03-29T08:05:57.484Z,1628.00
2023-03-29T08:06:57.473Z,1635.00
2023-03-29T08:07:57.720Z,1621.00
2023-03-29T08:08:57.499Z,1624.00
2023-03-29T08:09:57.507Z,1611.00
2023-03-29T08:10:57.499Z,1621.00
2023-03-29T08:11:57.553Z,1616.00
2023-03-29T08:12:57.514Z,1600.00
2023-03-29T08:13:57.504Z,1592.00
2023-03-29T08:14:57.548Z,1588.00
2023-03-29T08:15:57.521Z,1576.00
2023-03-29T08:16:57.590Z,1582.00
2023-03-29T08:17:57.564Z,1590.00
2023-03-29T08:18:57.539Z,1580.00
2023-03-29T08:19:57.553Z,1582.00
2023-03-29T08:20:57.546Z,1559.00
2023-03-29T08:21:57.555Z,1557.00
2023-03-29T08:22:57.570Z,1535.00
2023-03-29T08:23:57.579Z,1531.00
2023-03-29T08:24:57.618Z,1520.00
2023-03-29T08:25:57.659Z,1510.00
2023-03-29T08:26:57.620Z,1501.00
2023-03-29T08:27:57.650Z,1512.00
2023-03-29T08:28:57.654Z,1497.00
2023-03-29T08:29:57.679Z,1493.00
2023-03-29T08:30:57.722Z,1501.00
2023-03-29T08:31:57.707Z,1494.00
2023-03-29T08:32:57.738Z,1489.00
2023-03-29T08:33:57.742Z,1491.00
2023-03-29T08:34:57.761Z,1475.00
2023-03-29T08:35:57.854Z,1485.00
2023-03-29T08:36:57.803Z,1474.00
2023-03-29T08:37:57.809Z,1465.00
2023-03-29T08:38:57.842Z,1472.00
2023-03-29T08:39:58.734Z,1456.00
2023-03-29T08:40:57.862Z,1446.00
2023-03-29T08:41:57.886Z,1447.00
2023-03-29T08:42:57.897Z,1449.00
2023-03-29T08:43:57.937Z,1448.00
2023-03-29T08:44:58.035Z,1443.00
2023-03-29T08:45:57.981Z,1446.00
2023-03-29T08:46:58.870Z,1429.00
2023-03-29T08:47:58.028Z,1424.00
2023-03-29T08:48:58.020Z,1410.00
2023-03-29T08:49:58.039Z,1407.00
2023-03-29T08:50:58.066Z,1391.00
2023-03-29T08:51:58.092Z,1387.00
2023-03-29T08:52:58.108Z,1390.00
2023-03-29T08:53:58.127Z,1385.00
2023-03-29T08:54:58.137Z,1389.00
2023-03-29T08:55:58.212Z,1377.00
2023-03-29T08:56:58.210Z,1373.00
2023-03-29T08:57:58.288Z,1360.00
2023-03-29T08:58:58.229Z,1381.00
2023-03-29T08:59:58.276Z,1357.00
2023-03-29T09:00:58.279Z,1345.00
2023-03-29T09:01:58.317Z,1353.00
2023-03-29T09:02:58.465Z,1346.00
2023-03-29T09:03:58.379Z,1329.00
2023-03-29T09:04:58.356Z,1340.00
2023-03-29T09:05:58.745Z,1329.00
2023-03-29T09:06:58.412Z,1324.00
2023-03-29T09:07:58.429Z,1322.00
2023-03-29T09:08:58.461Z,1314.00
2023-03-29T09:09:58.494Z,1313.00
2023-03-29T09:10:58.500Z,1310.00
2023-03-29T09:11:58.543Z,1292.00
2023-03-29T09:12:58.801Z,1304.00
2023-03-29T09:13:58.562Z,1294.00
2023-03-29T09:14:58.584Z,1282.00
2023-03-29T09:15:58.636Z,1282.00
2023-03-29T09:16:58.622Z,1278.00
2023-03-29T09:17:58.688Z,1276.00
2023-03-29T09:18:58.689Z,1275.00
2023-03-29T09:19:58.683Z,1280.00
2023-03-29T09:20:58.833Z,1268.00
2023-03-29T09:21:58.725Z,1259.00
2023-03-29T09:22:58.767Z,1269.00
2023-03-29T09:23:58.779Z,1265.00
2023-03-29T09:24:58.803Z,1260.00
2023-03-29T09:25:59.708Z,1252.00
2023-03-29T09:26:58.849Z,1242.00
2023-03-29T09:27:58.879Z,1240.00
2023-03-29T09:28:58.918Z,1243.00
2023-03-29T09:29:58.930Z,1235.00
2023-03-29T09:30:59.257Z,1241.00
2023-03-29T09:31:58.987Z,1234.00
2023-03-29T09:32:59.078Z,1235.00
2023-03-29T09:33:59.023Z,1230.00
2023-03-29T09:34:59.762Z,1237.00
2023-03-29T09:35:59.107Z,1214.00
2023-03-29T09:36:59.100Z,1225.00
2023-03-29T09:37:59.119Z,1218.00
2023-03-29T09:38:59.162Z,1210.00
2023-03-29T09:39:59.173Z,1223.00
2023-03-29T09:40:59.251Z,1213.00
2023-03-29T09:41:59.225Z,1192.00
2023-03-29T09:42:59.253Z,1211.00
2023-03-29T09:43:59.289Z,1196.00
2023-03-29T09:44:59.311Z,1211.00
2023-03-29T09:45:59.385Z,1197.00
2023-03-29T09:46:59.383Z,1193.00
2023-03-29T09:47:59.429Z,1196.00
2023-03-29T09:48:59.441Z,1189.00
2023-03-29T09:49:59.468Z,1181.00
2023-03-29T09:50:59.545Z,1190.00
2023-03-29T09:51:59.531Z,1179.00
2023-03-29T09:52:59.570Z,1171.00
2023-03-29T09:53:59.603Z,1173.00
2023-03-29T09:54:59.638Z,1184.00
2023-03-29T09:55:59.672Z,1161.00
2023-03-29T09:56:59.757Z,1160.00
2023-03-29T09:57:59.734Z,1152.00
2023-03-29T09:59:00.260Z,1161.00
2023-03-29T09:59:59.799Z,1166.00
2023-03-29T10:00:59.989Z,1161.00
2023-03-29T10:02:00.755Z,1152.00
2023-03-29T10:03:00.020Z,1143.00
2023-03-29T10:04:00.115Z,1148.00
2023-03-29T10:04:59.965Z,1143.00
2023-03-29T10:06:00.007Z,1153.00
2023-03-29T10:07:00.060Z,1143.00
2023-03-29T10:08:00.121Z,1137.00
2023-03-29T10:09:00.135Z,1133.00
2023-03-29T10:10:00.200Z,1144.00
2023-03-29T10:11:00.411Z,1141.00
2023-03-29T10:12:00.212Z,1145.00
2023-03-29T10:13:00.253Z,1126.00
2023-03-29T10:14:00.303Z,1136.00
2023-03-29T10:15:00.356Z,1120.00
2023-03-29T10:16:01.284Z,1111.00
2023-03-29T10:17:00.461Z,1119.00
2023-03-29T10:18:00.501Z,1116.00
2023-03-29T10:19:00.776Z,1110.00
2023-03-29T10:20:03.076Z,1121.00
2023-03-29T10:21:01.492Z,1131.00
2023-03-29T10:22:00.554Z,1124.00
2023-03-29T10:23:00.546Z,1114.00
2023-03-29T10:24:00.776Z,1099.00
2023-03-29T10:25:00.566Z,1112.00
2023-03-29T10:26:00.560Z,1103.00
2023-03-29T10:27:00.559Z,1095.00
2023-03-29T10:28:00.628Z,1104.00
2023-03-29T10:29:00.586Z,1093.00
2023-03-29T10:30:00.566Z,1089.00
2023-03-29T10:31:00.891Z,1085.00
2023-03-29T10:32:00.638Z,1083.00
2023-03-29T10:33:00.639Z,1081.00
2023-03-29T10:34:00.601Z,1067.00
2023-03-29T10:35:00.629Z,1080.00
2023-03-29T10:36:00.657Z,1077.00
2023-03-29T10:37:00.615Z,1057.00
2023-03-29T10:38:00.617Z,1063.00
2023-03-29T10:39:01.660Z,1072.00
2023-03-29T10:40:00.654Z,1057.00
2023-03-29T10:41:00.889Z,1050.00
2023-03-29T10:42:00.653Z,1038.00
2023-03-29T10:43:00.664Z,1053.00
2023-03-29T10:44:00.663Z,1038.00
2023-03-29T10:45:01.152Z,1040.00
2023-03-29T10:46:00.709Z,1032.00
2023-03-29T10:47:00.680Z,1033.00
2023-03-29T10:48:00.782Z,1048.00
2023-03-29T10:49:00.720Z,1036.00
2023-03-29T10:50:00.757Z,1023.00
2023-03-29T10:51:01.131Z,1038.00
2023-03-29T10:52:00.789Z,1033.00
2023-03-29T10:53:00.821Z,1023.00
2023-03-29T10:54:00.857Z,1031.00
2023-03-29T10:55:00.899Z,1018.00
2023-03-29T10:56:00.923Z,1013.00
2023-03-29T10:57:01.000Z,1023.00
2023-03-29T10:58:00.998Z,1012.00
2023-03-29T10:59:01.032Z,1019.00
2023-03-29T11:00:01.175Z,1005.00
2023-03-29T11:01:01.268Z,1014.00
2023-03-29T11:02:01.193Z,1014.00
2023-03-29T11:03:01.248Z,999.00
2023-03-29T11:04:01.326Z,1001.00
2023-03-29T11:05:01.255Z,1002.00
2023-03-29T11:06:01.309Z,996.00
2023-03-29T11:07:01.326Z,999.00
2023-03-29T11:08:01.369Z,1001.00
2023-03-29T11:09:01.406Z,987.00
2023-03-29T11:10:01.484Z,987.00
2023-03-29T11:11:01.739Z,996.00
2023-03-29T11:12:15.051Z,971.00
2023-03-29T11:13:02.539Z,973.00
2023-03-29T11:14:01.545Z,976.00
2023-03-29T11:15:01.621Z,978.00
2023-03-29T11:16:01.618Z,982.00
2023-03-29T11:17:01.566Z,984.00
2023-03-29T11:18:01.632Z,978.00
2023-03-29T11:19:01.575Z,980.00
2023-03-29T11:20:03.703Z,977.00
2023-03-29T11:21:01.745Z,995.00
2023-03-29T11:22:01.618Z,972.00
2023-03-29T11:23:01.735Z,980.00
2023-03-29T11:24:01.637Z,968.00
2023-03-29T11:25:01.669Z,963.00
2023-03-29T11:26:01.665Z,960.00
2023-03-29T11:27:01.673Z,957.00
2023-03-29T11:28:01.730Z,969.00
2023-03-29T11:29:01.695Z,963.00
2023-03-29T11:30:01.915Z,948.00
2023-03-29T11:31:02.222Z,964.00
2023-03-29T11:32:01.804Z,948.00
2023-03-29T11:33:01.891Z,953.00
2023-03-29T11:34:01.820Z,942.00
2023-03-29T11:35:01.778Z,939.00
2023-03-29T11:36:01.803Z,936.00
2023-03-29T11:37:01.776Z,938.00
2023-03-29T11:38:01.819Z,947.00
2023-03-29T11:39:01.825Z,935.00
2023-03-29T11:40:01.811Z,925.00
2023-03-29T11:41:01.938Z,934.00
2023-03-29T11:42:01.820Z,929.00
2023-03-29T11:43:01.844Z,934.00
2023-03-29T11:44:01.892Z,931.00
2023-03-29T11:45:01.854Z,920.00
2023-03-29T11:46:01.888Z,912.00
2023-03-29T11:47:02.009Z,911.00
2023-03-29T11:48:02.013Z,905.00
2023-03-29T11:49:01.887Z,912.00
2023-03-29T11:50:01.915Z,904.00
2023-03-29T11:51:02.124Z,897.00
2023-03-29T11:52:02.799Z,895.00
2023-03-29T11:53:01.932Z,909.00
2023-03-29T11:54:01.961Z,896.00
2023-03-29T11:55:01.945Z,900.00
2023-03-29T11:56:02.307Z,899.00
2023-03-29T11:57:02.013Z,895.00
2023-03-29T11:58:01.968Z,874.00
2023-03-29T11:59:01.977Z,881.00
2023-03-29T12:00:02.011Z,877.00
2023-03-29T12:01:02.211Z,897.00
2023-03-29T12:02:02.031Z,888.00
2023-03-29T12:03:02.110Z,873.00
2023-03-29T12:04:02.126Z,866.00
2023-03-29T12:05:02.076Z,859.00
2023-03-29T12:06:02.312Z,860.00
2023-03-29T12:07:02.140Z,853.00
2023-03-29T12:08:02.321Z,852.00
2023-03-29T12:09:02.090Z,846.00
2023-03-29T12:10:02.124Z,861.00
2023-03-29T12:11:02.284Z,842.00
2023-03-29T12:12:02.124Z,855.00
2023-03-29T12:13:02.157Z,854.00
2023-03-29T12:14:02.134Z,834.00
2023-03-29T12:15:02.169Z,831.00
2023-03-29T12:16:02.242Z,831.00
2023-03-29T12:17:02.304Z,817.00
2023-03-29T12:18:02.355Z,832.00
2023-03-29T12:19:02.372Z,821.00
2023-03-29T12:20:02.424Z,823.00